Time;durP1;ratioP1;P1;durP2;ratioP2;P2;SDS_P1;SDS_P2;PMS_P1;PMS_P2;Temp;Humidity;BMP_temperature;BMP_pressure;BME280_temperature;BME280_humidity;BME280_pressure;Samples;Min_cycle;Max_cycle;Signal;HPM_P1;HPM_P2
2021/06/17 00:00:32;;;;;;;9.17;8.10;;;23.20;96.20;;;;;;4991692;28;20472;-46
2021/06/17 00:02:59;;;;;;;9.60;8.80;;;23.10;96.90;;;;;;4994971;28;20526;-46
2021/06/17 00:05:29;;;;;;;8.67;7.40;;;23.10;97.30;;;;;;4993808;28;20477;-44
2021/06/17 00:07:59;;;;;;;9.80;9.00;;;23.00;97.30;;;;;;4995565;28;20841;-45
2021/06/17 00:10:29;;;;;;;9.53;8.70;;;23.10;97.80;;;;;;4998684;28;20495;-45
2021/06/17 00:12:59;;;;;;;9.70;8.90;;;23.10;97.20;;;;;;4984864;28;20754;-45
2021/06/17 00:15:32;;;;;;;11.33;8.97;;;23.10;97.20;;;;;;4998505;28;20472;-45
2021/06/17 00:17:59;;;;;;;8.23;7.53;;;23.10;97.20;;;;;;4999144;28;20472;-45
2021/06/17 00:20:28;;;;;;;9.80;8.90;;;23.00;97.00;;;;;;4998397;28;20457;-46
2021/06/17 00:22:58;;;;;;;9.03;8.43;;;23.00;97.30;;;;;;4998475;28;20880;-44
2021/06/17 00:25:26;;;;;;;9.57;8.87;;;22.90;98.20;;;;;;4997746;28;20753;-45
2021/06/17 00:27:53;;;;;;;9.63;8.80;;;23.00;97.90;;;;;;4998583;28;20468;-45
2021/06/17 00:30:21;;;;;;;9.70;8.90;;;22.90;97.90;;;;;;4998041;28;20805;-47
2021/06/17 00:32:51;;;;;;;9.47;8.67;;;22.90;98.00;;;;;;4998436;28;20551;-49
2021/06/17 00:35:19;;;;;;;9.67;8.87;;;22.90;98.40;;;;;;4998532;28;20468;-47
2021/06/17 00:37:46;;;;;;;10.80;9.80;;;22.80;98.90;;;;;;4998514;28;20457;-49
2021/06/17 00:40:15;;;;;;;8.97;8.33;;;22.70;99.40;;;;;;4998244;28;20465;-48
2021/06/17 00:42:45;;;;;;;8.80;8.10;;;22.60;99.60;;;;;;4997723;28;20461;-51
2021/06/17 00:45:18;;;;;;;8.90;8.20;;;22.60;99.60;;;;;;4998999;28;20469;-49
2021/06/17 00:47:45;;;;;;;8.43;7.93;;;22.60;99.30;;;;;;4997108;28;20973;-51
2021/06/17 00:50:14;;;;;;;9.03;8.23;;;22.70;98.80;;;;;;4998801;28;20886;-48
2021/06/17 00:52:43;;;;;;;8.60;7.90;;;22.70;98.90;;;;;;4997974;28;20468;-48
2021/06/17 00:55:11;;;;;;;8.83;8.23;;;22.60;99.50;;;;;;4998217;28;20564;-45
2021/06/17 00:57:39;;;;;;;9.20;8.50;;;22.60;99.90;;;;;;4997503;28;20923;-45
2021/06/17 01:00:12;;;;;;;9.53;8.80;;;22.50;99.90;;;;;;4998722;28;20496;-45
2021/06/17 01:02:39;;;;;;;10.93;8.97;;;22.40;99.90;;;;;;4997014;28;20492;-45
2021/06/17 01:05:07;;;;;;;10.30;9.40;;;22.40;99.90;;;;;;4992997;28;20496;-47
2021/06/17 01:07:45;;;;;;;9.60;8.90;;;22.40;99.90;;;;;;4994313;28;20444;-47
2021/06/17 01:10:20;;;;;;;9.57;8.87;;;22.30;99.90;;;;;;4997622;28;20459;-47
2021/06/17 01:12:59;;;;;;;9.53;8.83;;;22.20;99.90;;;;;;4978136;28;20559;-45
2021/06/17 01:15:27;;;;;;;10.00;9.20;;;22.20;99.90;;;;;;4989354;28;20538;-44
2021/06/17 01:17:59;;;;;;;8.93;8.13;;;22.20;99.90;;;;;;4997818;28;20482;-47
2021/06/17 01:20:31;;;;;;;9.43;8.70;;;22.20;99.90;;;;;;4997598;28;20770;-45
2021/06/17 01:23:21;;;;;;;8.93;8.23;;;22.20;99.90;;;;;;4997976;28;20496;-45
2021/06/17 01:26:02;;;;;;;8.70;8.00;;;22.20;99.90;;;;;;4997588;28;20468;-50
2021/06/17 01:28:31;;;;;;;10.30;9.40;;;22.10;99.90;;;;;;4996729;28;20472;-45
2021/06/17 01:31:02;;;;;;;8.27;7.67;;;22.00;99.90;;;;;;4997876;28;20515;-46
2021/06/17 01:33:33;;;;;;;9.43;8.60;;;21.90;99.90;;;;;;4996890;28;20464;-45
2021/06/17 01:36:03;;;;;;;8.87;8.17;;;21.80;99.90;;;;;;4998132;28;20473;-45
2021/06/17 01:38:32;;;;;;;10.20;9.40;;;21.70;99.90;;;;;;4996560;28;20475;-45
2021/06/17 01:41:00;;;;;;;10.30;9.50;;;21.70;99.90;;;;;;4997467;28;20898;-46
2021/06/17 01:43:28;;;;;;;9.93;8.93;;;21.70;99.90;;;;;;4996498;28;20465;-45
2021/06/17 01:46:01;;;;;;;9.97;9.10;;;21.60;99.90;;;;;;4997999;28;20439;-48
2021/06/17 01:48:30;;;;;;;10.77;9.90;;;21.50;99.90;;;;;;4996840;28;20832;-44
2021/06/17 01:50:57;;;;;;;9.13;8.43;;;21.50;99.90;;;;;;4997108;28;21004;-44
2021/06/17 01:53:25;;;;;;;9.40;8.70;;;21.40;99.90;;;;;;4997223;28;20897;-45
2021/06/17 01:55:57;;;;;;;9.90;9.10;;;21.40;99.90;;;;;;4997373;28;20466;-45
2021/06/17 01:58:25;;;;;;;9.57;8.77;;;21.40;99.90;;;;;;4978447;28;20505;-44
2021/06/17 02:00:52;;;;;;;10.00;9.20;;;21.30;99.90;;;;;;4989455;28;20487;-44
2021/06/17 02:03:23;;;;;;;10.20;9.40;;;21.30;99.90;;;;;;4994165;28;20519;-47
2021/06/17 02:05:51;;;;;;;11.43;10.43;;;21.20;99.90;;;;;;4997665;28;20494;-45
2021/06/17 02:08:20;;;;;;;9.07;8.37;;;21.20;99.90;;;;;;5001119;28;20464;-51
2021/06/17 02:10:48;;;;;;;9.50;8.70;;;21.10;99.90;;;;;;5000389;28;20487;-50
2021/06/17 02:13:17;;;;;;;8.90;8.10;;;21.10;99.90;;;;;;5001041;28;20495;-46
2021/06/17 02:15:46;;;;;;;9.30;8.60;;;21.20;99.90;;;;;;5000532;28;20831;-51
2021/06/17 02:18:15;;;;;;;9.83;9.03;;;21.10;99.90;;;;;;5001532;28;20460;-52
2021/06/17 02:20:44;;;;;;;9.40;8.60;;;21.10;99.90;;;;;;5000821;28;20465;-48
2021/06/17 02:23:13;;;;;;;9.23;8.43;;;21.00;99.90;;;;;;4999925;28;20468;-47
2021/06/17 02:25:41;;;;;;;9.70;8.90;;;21.00;99.90;;;;;;5000620;28;20444;-45
2021/06/17 02:28:14;;;;;;;11.23;10.13;;;21.00;99.90;;;;;;5001560;28;20471;-45
2021/06/17 02:30:42;;;;;;;9.63;8.93;;;21.00;99.90;;;;;;5001023;28;20889;-45
2021/06/17 02:33:12;;;;;;;10.87;9.97;;;20.90;99.90;;;;;;5000009;28;20495;-44
2021/06/17 02:35:42;;;;;;;9.30;8.60;;;20.90;99.90;;;;;;5000952;28;20468;-47
2021/06/17 02:38:14;;;;;;;9.10;8.40;;;20.80;99.90;;;;;;5000164;28;20457;-44
2021/06/17 02:40:44;;;;;;;10.60;9.37;;;20.80;99.90;;;;;;5000388;28;20465;-44
2021/06/17 02:43:15;;;;;;;9.80;9.10;;;20.80;99.90;;;;;;4999944;28;20464;-44
2021/06/17 02:45:43;;;;;;;9.23;8.53;;;20.80;99.90;;;;;;5000640;28;20461;-44
2021/06/17 02:48:11;;;;;;;9.53;8.73;;;20.80;99.90;;;;;;5000150;28;20461;-45
2021/06/17 02:50:39;;;;;;;8.50;7.80;;;20.80;99.90;;;;;;4999730;28;20465;-45
2021/06/17 02:53:06;;;;;;;8.90;8.20;;;20.70;99.90;;;;;;5000124;28;20496;-46
2021/06/17 02:55:35;;;;;;;9.20;8.50;;;20.70;99.90;;;;;;4999808;28;20928;-47
2021/06/17 02:58:18;;;;;;;9.57;8.83;;;20.70;99.90;;;;;;4981401;28;20473;-45
2021/06/17 03:00:51;;;;;;;9.70;8.93;;;20.80;99.90;;;;;;4990240;28;20462;-46
2021/06/17 03:03:27;;;;;;;10.30;9.30;;;20.70;99.90;;;;;;4982996;28;20493;-47
2021/06/17 03:06:02;;;;;;;9.53;8.73;;;20.70;99.90;;;;;;4976909;28;20481;-46
2021/06/17 03:08:35;;;;;;;9.33;8.43;;;20.80;99.90;;;;;;4980836;28;20832;-46
2021/06/17 03:11:09;;;;;;;9.27;8.67;;;20.80;99.90;;;;;;4979980;28;20900;-45
2021/06/17 03:13:41;;;;;;;10.33;9.33;;;20.80;99.90;;;;;;4973216;28;20465;-48
2021/06/17 03:16:10;;;;;;;9.70;8.90;;;20.70;99.90;;;;;;4980086;28;20494;-53
2021/06/17 03:18:39;;;;;;;9.47;8.67;;;20.70;99.90;;;;;;4979708;28;20469;-55
2021/06/17 03:21:09;;;;;;;9.97;9.27;;;20.70;99.90;;;;;;4980542;28;20891;-55
2021/06/17 03:23:39;;;;;;;9.53;8.83;;;20.70;99.90;;;;;;4979942;28;20913;-55
2021/06/17 03:26:10;;;;;;;10.87;10.07;;;20.60;99.90;;;;;;4980259;28;20891;-55
2021/06/17 03:28:40;;;;;;;10.23;9.37;;;20.60;99.90;;;;;;4979748;28;20488;-53
2021/06/17 03:31:09;;;;;;;10.57;9.67;;;20.60;99.90;;;;;;4980317;28;20497;-55
2021/06/17 03:33:39;;;;;;;9.20;8.50;;;20.50;99.90;;;;;;4979593;28;20469;-46
2021/06/17 03:36:10;;;;;;;13.20;9.53;;;20.50;99.90;;;;;;4980088;28;20572;-51
2021/06/17 03:38:38;;;;;;;9.53;8.83;;;20.60;99.90;;;;;;4979352;28;20993;-46
2021/06/17 03:41:08;;;;;;;9.93;8.80;;;20.60;99.90;;;;;;4979666;28;20465;-56
2021/06/17 03:43:37;;;;;;;10.57;9.57;;;20.60;99.90;;;;;;4979972;28;20466;-52
2021/06/17 03:46:09;;;;;;;11.23;8.20;;;20.60;99.90;;;;;;4979254;28;20458;-49
2021/06/17 03:48:39;;;;;;;10.33;8.97;;;20.60;99.90;;;;;;4980208;28;20440;-48
2021/06/17 03:51:08;;;;;;;10.53;9.63;;;20.60;99.90;;;;;;4979036;28;20495;-49
2021/06/17 03:53:36;;;;;;;9.47;8.57;;;20.70;99.90;;;;;;4980584;28;20583;-53
2021/06/17 03:56:04;;;;;;;11.60;8.87;;;20.60;99.90;;;;;;4979216;28;20462;-46
2021/06/17 03:58:33;;;;;;;10.73;9.70;;;20.60;99.90;;;;;;4979909;28;20946;-46
2021/06/17 04:01:00;;;;;;;13.17;9.40;;;20.70;99.90;;;;;;4978843;28;20538;-45
2021/06/17 04:03:29;;;;;;;8.97;8.27;;;20.70;99.90;;;;;;4972921;28;20505;-45
2021/06/17 04:05:57;;;;;;;9.40;8.60;;;20.70;99.90;;;;;;4977048;28;20481;-47
2021/06/17 04:08:29;;;;;;;8.87;8.17;;;20.80;99.90;;;;;;4980264;28;20464;-46
2021/06/17 04:10:58;;;;;;;9.63;8.87;;;20.80;99.90;;;;;;4979405;28;20476;-45
2021/06/17 04:13:27;;;;;;;8.63;7.93;;;20.90;99.90;;;;;;4978637;28;20490;-46
2021/06/17 04:15:56;;;;;;;8.23;7.30;;;21.00;99.90;;;;;;4979843;28;20469;-46
2021/06/17 04:18:26;;;;;;;9.60;8.80;;;21.10;99.90;;;;;;4981808;28;20448;-46
2021/06/17 04:20:56;;;;;;;9.37;8.60;;;21.10;99.90;;;;;;4978526;28;20473;-46
2021/06/17 04:23:25;;;;;;;9.07;8.20;;;21.20;99.90;;;;;;4980052;28;20468;-47
2021/06/17 04:25:55;;;;;;;8.97;8.27;;;21.20;99.90;;;;;;4979997;28;20807;-54
2021/06/17 04:28:23;;;;;;;8.93;8.23;;;21.30;99.90;;;;;;4980487;28;20458;-54
2021/06/17 04:30:51;;;;;;;9.33;8.63;;;21.30;99.90;;;;;;4979584;28;20925;-55
2021/06/17 04:33:22;;;;;;;8.67;7.97;;;21.30;99.90;;;;;;4997542;28;20559;-56
2021/06/17 04:35:55;;;;;;;9.70;8.80;;;21.30;99.90;;;;;;4999169;28;20482;-56
2021/06/17 04:38:23;;;;;;;8.70;8.10;;;21.40;99.90;;;;;;4990836;28;20459;-56
2021/06/17 04:40:53;;;;;;;11.83;8.10;;;21.40;99.90;;;;;;4959806;29;20458;-53
2021/06/17 04:43:22;;;;;;;8.93;8.00;;;21.50;99.90;;;;;;4959848;29;20466;-51
2021/06/17 04:45:51;;;;;;;8.70;8.00;;;21.60;99.90;;;;;;4960081;29;20526;-53
2021/06/17 04:48:22;;;;;;;8.73;7.83;;;21.70;99.90;;;;;;4984858;28;20567;-50
2021/06/17 04:50:57;;;;;;;9.57;8.77;;;21.80;99.90;;;;;;4998002;28;20465;-48
2021/06/17 04:53:24;;;;;;;9.17;8.40;;;21.90;99.90;;;;;;4998543;28;20870;-52
2021/06/17 04:55:53;;;;;;;9.07;8.40;;;21.90;99.90;;;;;;4982484;28;20521;-48
2021/06/17 04:58:21;;;;;;;8.13;7.53;;;22.00;99.90;;;;;;4978772;28;20470;-49
2021/06/17 05:00:49;;;;;;;8.97;8.27;;;22.10;99.90;;;;;;4978669;28;20469;-48
2021/06/17 05:03:22;;;;;;;10.13;9.13;;;22.20;99.90;;;;;;4971481;28;20504;-46
2021/06/17 05:05:53;;;;;;;8.40;7.80;;;22.30;99.90;;;;;;4975473;28;20478;-47
2021/06/17 05:11:05;;;;;;;9.00;8.30;;;22.30;99.90;;;;;;4959051;28;20707;-53
2021/06/17 05:13:33;;;;;;;8.17;7.57;;;22.40;99.90;;;;;;4969608;28;20568;-53
2021/06/17 05:16:01;;;;;;;8.60;7.80;;;22.50;99.90;;;;;;4978764;28;20758;-49
2021/06/17 05:18:30;;;;;;;7.90;7.40;;;22.60;99.90;;;;;;4978025;28;20874;-47
2021/06/17 05:21:01;;;;;;;8.40;7.63;;;22.70;99.90;;;;;;4978434;28;20466;-47
2021/06/17 05:23:29;;;;;;;9.40;7.30;;;22.80;99.90;;;;;;4978153;28;20882;-48
2021/06/17 05:25:59;;;;;;;8.60;8.00;;;22.90;99.90;;;;;;4979052;28;20805;-49
2021/06/17 05:28:28;;;;;;;8.57;7.77;;;23.00;99.90;;;;;;4977804;28;20466;-52
2021/06/17 05:30:58;;;;;;;8.77;8.10;;;23.10;99.90;;;;;;4977659;28;20894;-48
2021/06/17 05:33:30;;;;;;;8.60;7.50;;;23.20;99.90;;;;;;4977805;28;21037;-49
2021/06/17 05:35:57;;;;;;;8.73;7.93;;;23.40;99.90;;;;;;4977966;28;20443;-55
2021/06/17 05:38:29;;;;;;;9.90;7.93;;;23.50;99.90;;;;;;4977348;28;20916;-52
2021/06/17 05:40:56;;;;;;;9.37;7.47;;;23.70;98.90;;;;;;4977232;28;20528;-57
2021/06/17 05:43:23;;;;;;;8.20;7.50;;;23.80;98.10;;;;;;4977737;28;20453;-56
2021/06/17 05:45:50;;;;;;;7.70;7.13;;;24.10;97.80;;;;;;4977571;28;20458;-56
2021/06/17 05:48:17;;;;;;;8.37;7.67;;;24.30;96.20;;;;;;4978588;28;20468;-55
2021/06/17 05:50:46;;;;;;;8.50;7.70;;;24.40;94.90;;;;;;4977223;28;20470;-56
2021/06/17 05:53:14;;;;;;;8.43;7.60;;;24.60;93.70;;;;;;4975258;28;20485;-55
2021/06/17 05:55:41;;;;;;;9.97;7.27;;;24.80;91.60;;;;;;4976301;28;20469;-49
2021/06/17 05:58:08;;;;;;;7.23;6.73;;;25.00;92.40;;;;;;4976186;28;20815;-56
2021/06/17 06:00:35;;;;;;;7.23;6.73;;;25.10;89.00;;;;;;4975072;28;20448;-53
2021/06/17 06:03:02;;;;;;;8.50;7.07;;;25.20;88.40;;;;;;4969713;28;20558;-58
2021/06/17 06:05:29;;;;;;;8.27;7.57;;;25.40;86.80;;;;;;4972510;28;20478;-53
2021/06/17 06:07:59;;;;;;;8.17;6.90;;;25.70;84.90;;;;;;4976223;28;20767;-53
2021/06/17 06:10:26;;;;;;;8.07;7.37;;;25.70;83.40;;;;;;4976999;28;20895;-47
2021/06/17 06:12:57;;;;;;;6.70;6.10;;;26.00;81.10;;;;;;4976039;28;20851;-51
2021/06/17 06:15:27;;;;;;;7.60;6.90;;;26.20;80.90;;;;;;4977792;28;20862;-48
2021/06/17 06:17:54;;;;;;;7.40;6.80;;;26.40;79.40;;;;;;4977143;28;20556;-50
2021/06/17 06:20:21;;;;;;;8.50;6.87;;;26.50;76.10;;;;;;4976879;28;20478;-53
2021/06/17 06:22:48;;;;;;;8.13;6.90;;;26.70;74.90;;;;;;4975511;28;20473;-52
2021/06/17 06:25:16;;;;;;;7.07;6.47;;;26.80;75.10;;;;;;4976293;28;20474;-56
2021/06/17 06:27:43;;;;;;;7.60;7.00;;;27.00;73.60;;;;;;4977206;28;20536;-54
2021/06/17 06:30:11;;;;;;;6.67;6.17;;;27.30;73.20;;;;;;4976072;28;20469;-55
2021/06/17 06:32:39;;;;;;;8.27;7.17;;;27.50;70.80;;;;;;4975224;28;20501;-53
2021/06/17 06:35:09;;;;;;;8.00;6.20;;;27.60;70.20;;;;;;4976618;28;20547;-51
2021/06/17 06:37:37;;;;;;;7.40;6.80;;;27.70;68.30;;;;;;4977319;28;20448;-54
2021/06/17 06:40:08;;;;;;;8.67;8.00;;;27.70;68.10;;;;;;4976798;28;20472;-54
2021/06/17 06:42:36;;;;;;;7.47;6.83;;;28.00;68.50;;;;;;4975529;28;20472;-55
2021/06/17 06:45:04;;;;;;;7.93;7.33;;;28.20;66.30;;;;;;4978255;28;20474;-56
2021/06/17 06:47:31;;;;;;;6.73;6.23;;;28.30;65.00;;;;;;4980066;28;20782;-54
2021/06/17 06:49:58;;;;;;;6.70;6.17;;;28.50;64.90;;;;;;4978591;28;20469;-50
2021/06/17 07:30:49;;;;;;;6.30;5.90;;;30.80;55.60;;;;;;2790959;23;20821;-47
2021/06/17 07:33:16;;;;;;;7.03;6.53;;;31.00;56.20;;;;;;4980806;28;20934;-51
2021/06/17 07:35:43;;;;;;;7.63;7.13;;;31.10;53.90;;;;;;4979271;28;20458;-47
2021/06/17 07:38:10;;;;;;;8.23;6.67;;;30.90;54.10;;;;;;4980687;28;20465;-53
2021/06/17 07:40:40;;;;;;;7.57;6.17;;;31.10;54.40;;;;;;4979753;28;20465;-54
2021/06/17 07:43:08;;;;;;;7.17;6.67;;;31.00;54.10;;;;;;4980777;28;20458;-57
2021/06/17 07:45:36;;;;;;;7.50;5.93;;;31.10;54.20;;;;;;4979730;28;20503;-54
2021/06/17 07:48:10;;;;;;;10.80;6.80;;;31.00;54.30;;;;;;4996091;28;20465;-55
2021/06/17 07:50:39;;;;;;;6.33;5.93;;;31.10;53.90;;;;;;4979920;28;20850;-56
2021/06/17 07:53:12;;;;;;;6.57;6.10;;;31.20;53.40;;;;;;4979977;28;20898;-55
2021/06/17 07:55:43;;;;;;;7.23;6.63;;;31.30;53.80;;;;;;4979063;28;20470;-49
2021/06/17 07:58:10;;;;;;;10.90;5.77;;;31.30;53.00;;;;;;4979486;28;20465;-50
2021/06/17 08:00:37;;;;;;;6.90;6.10;;;31.50;52.70;;;;;;4980753;28;20466;-54
2021/06/17 08:03:08;;;;;;;6.47;5.90;;;31.80;53.50;;;;;;4973393;28;20482;-56
2021/06/17 08:05:35;;;;;;;9.80;7.10;;;31.90;52.90;;;;;;4976890;28;20794;-52
2021/06/17 08:08:07;;;;;;;6.80;6.13;;;32.30;51.70;;;;;;4979036;28;20458;-54
2021/06/17 08:10:34;;;;;;;7.83;7.23;;;32.50;50.70;;;;;;4989122;28;20475;-53
2021/06/17 08:13:01;;;;;;;6.97;6.27;;;32.50;51.00;;;;;;4983344;28;20556;-49
2021/06/17 08:15:29;;;;;;;7.53;6.70;;;32.60;51.40;;;;;;4979968;28;20499;-56
2021/06/17 08:17:56;;;;;;;8.33;6.30;;;32.80;51.10;;;;;;4980677;28;20469;-53
2021/06/17 08:20:24;;;;;;;9.40;6.60;;;32.90;49.60;;;;;;4998659;28;20865;-54
2021/06/17 08:22:51;;;;;;;6.43;6.00;;;32.70;49.80;;;;;;4979418;28;20564;-58
2021/06/17 08:25:21;;;;;;;6.70;6.17;;;32.50;49.10;;;;;;4979173;28;20520;-50
2021/06/17 08:27:49;;;;;;;6.23;5.73;;;32.60;49.30;;;;;;4979445;28;20503;-47
2021/06/17 08:30:18;;;;;;;6.67;6.13;;;32.90;50.20;;;;;;4978275;28;20476;-50
2021/06/17 08:32:47;;;;;;;6.97;6.27;;;33.30;49.20;;;;;;4979124;28;20494;-53
2021/06/17 08:35:14;;;;;;;7.37;6.63;;;33.50;48.40;;;;;;4978853;28;20741;-49
2021/06/17 08:37:46;;;;;;;6.37;5.97;;;33.40;47.80;;;;;;4979000;28;20469;-48
2021/06/17 08:40:13;;;;;;;7.77;6.50;;;33.20;48.30;;;;;;4978286;28;20473;-48
2021/06/17 08:42:41;;;;;;;7.17;6.53;;;33.50;48.00;;;;;;4983798;28;20901;-53
2021/06/17 08:45:10;;;;;;;6.60;5.70;;;33.50;47.70;;;;;;4982044;28;20466;-55
2021/06/17 08:47:37;;;;;;;6.17;5.63;;;33.70;46.50;;;;;;4977762;28;20475;-49
2021/06/17 08:50:09;;;;;;;7.73;6.93;;;33.80;47.30;;;;;;4980538;28;20495;-51
2021/06/17 08:52:40;;;;;;;6.90;6.40;;;34.00;47.30;;;;;;4977800;28;20473;-49
2021/06/17 08:55:17;;;;;;;6.07;5.67;;;34.10;47.70;;;;;;4973624;28;20953;-54
2021/06/17 08:57:47;;;;;;;6.57;6.03;;;34.50;47.10;;;;;;4977806;28;20908;-53
2021/06/17 09:00:36;;;;;;;5.80;5.30;;;34.80;45.00;;;;;;4979116;28;20613;-48
2021/06/17 09:03:07;;;;;;;6.77;6.20;;;34.90;45.40;;;;;;4971036;28;20697;-50
2021/06/17 09:05:37;;;;;;;6.80;6.30;;;34.80;44.60;;;;;;4971284;28;20832;-48
2021/06/17 09:08:06;;;;;;;6.80;6.30;;;34.80;45.40;;;;;;4972231;28;20527;-53
2021/06/17 09:10:35;;;;;;;6.27;5.87;;;34.80;44.10;;;;;;4968880;28;20856;-49
2021/06/17 09:13:06;;;;;;;6.17;5.77;;;35.50;43.80;;;;;;4971170;28;20881;-53
2021/06/17 09:15:40;;;;;;;6.20;5.70;;;35.20;44.50;;;;;;4969560;28;20470;-49
2021/06/17 09:18:13;;;;;;;6.60;6.20;;;35.30;43.70;;;;;;4973811;28;20469;-51
2021/06/17 09:20:45;;;;;;;5.90;5.50;;;35.30;42.40;;;;;;4974751;28;20472;-46
2021/06/17 09:23:23;;;;;;;6.20;5.80;;;35.50;43.20;;;;;;4971363;28;20542;-52
2021/06/17 09:25:54;;;;;;;6.90;5.73;;;35.60;41.90;;;;;;4975854;28;20772;-52
2021/06/17 09:28:21;;;;;;;6.03;5.53;;;35.70;42.80;;;;;;4977338;28;20736;-50
2021/06/17 09:30:48;;;;;;;6.43;5.83;;;35.50;41.30;;;;;;4972744;28;20461;-51
2021/06/17 09:33:18;;;;;;;7.37;5.73;;;34.90;41.60;;;;;;4977676;28;20556;-50
2021/06/17 09:35:51;;;;;;;7.10;5.20;;;35.20;42.80;;;;;;4976667;28;20786;-50
2021/06/17 09:38:19;;;;;;;5.57;5.03;;;35.30;42.70;;;;;;4976557;28;20901;-51
2021/06/17 09:40:58;;;;;;;5.60;5.17;;;35.50;41.60;;;;;;4982291;28;20464;-53
2021/06/17 09:43:28;;;;;;;5.10;4.80;;;35.10;42.10;;;;;;4975166;28;20436;-50
2021/06/17 09:46:04;;;;;;;5.83;5.43;;;35.30;41.90;;;;;;4977600;28;20461;-49
2021/06/17 09:48:39;;;;;;;7.67;6.97;;;35.60;41.10;;;;;;4977190;28;20461;-51
2021/06/17 09:51:30;;;;;;;6.50;6.10;;;35.60;40.60;;;;;;4977688;28;20465;-49
2021/06/17 09:54:21;;;;;;;5.90;5.50;;;35.60;40.60;;;;;;4974872;28;20596;-51
2021/06/17 09:56:53;;;;;;;5.80;5.40;;;35.60;41.70;;;;;;4976671;28;20881;-55
2021/06/17 09:59:35;;;;;;;6.83;6.33;;;35.40;40.10;;;;;;4976648;28;20527;-47
2021/06/17 10:02:03;;;;;;;5.57;5.27;;;35.70;40.70;;;;;;4971922;28;20819;-52
2021/06/17 10:04:30;;;;;;;5.70;5.30;;;36.10;38.80;;;;;;4968762;28;20918;-50
2021/06/17 10:06:58;;;;;;;5.40;5.03;;;36.10;40.30;;;;;;4974650;28;20468;-44
2021/06/17 10:09:31;;;;;;;5.73;5.33;;;36.50;38.30;;;;;;4977831;28;20476;-47
2021/06/17 10:12:00;;;;;;;6.30;5.87;;;37.00;39.00;;;;;;4976286;28;20846;-46
2021/06/17 10:14:27;;;;;;;5.20;4.70;;;37.10;39.90;;;;;;4982491;28;20492;-53
2021/06/17 10:16:54;;;;;;;5.00;4.70;;;37.20;38.60;;;;;;4980069;28;20467;-45
2021/06/17 10:19:22;;;;;;;5.37;4.87;;;37.60;38.60;;;;;;4976234;28;20464;-54
2021/06/17 10:21:49;;;;;;;5.40;4.93;;;37.50;36.80;;;;;;4975971;28;20469;-45
2021/06/17 10:24:18;;;;;;;5.83;5.10;;;37.70;38.40;;;;;;4979771;28;20440;-52
2021/06/17 10:26:47;;;;;;;4.83;4.43;;;37.50;36.50;;;;;;4976886;28;20484;-51
2021/06/17 10:29:40;;;;;;;5.53;5.13;;;37.60;36.90;;;;;;4980557;28;20555;-55
2021/06/17 10:32:08;;;;;;;5.67;5.27;;;37.50;36.90;;;;;;4972870;28;20277;-51
2021/06/17 10:34:54;;;;;;;6.20;5.80;;;37.40;37.60;;;;;;4979808;28;20500;-53
2021/06/17 10:37:29;;;;;;;6.50;5.40;;;37.40;37.70;;;;;;4979536;28;20468;-51
2021/06/17 10:40:03;;;;;;;8.93;5.77;;;37.00;37.70;;;;;;4977641;28;20891;-49
2021/06/17 10:42:41;;;;;;;15.07;6.10;;;37.20;37.70;;;;;;4979835;28;20931;-48
2021/06/17 10:45:12;;;;;;;6.13;5.63;;;37.40;39.50;;;;;;4983349;28;20579;-49
2021/06/17 10:47:54;;;;;;;5.63;5.20;;;38.00;38.20;;;;;;4989031;28;20465;-56
2021/06/17 10:50:23;;;;;;;6.73;5.53;;;38.60;36.70;;;;;;4977854;28;20210;-53
2021/06/17 10:52:54;;;;;;;5.97;5.37;;;38.20;36.80;;;;;;4981350;28;20510;-56
2021/06/17 10:55:22;;;;;;;6.97;5.17;;;38.20;36.40;;;;;;4983238;28;20534;-50
2021/06/17 10:57:52;;;;;;;5.87;5.37;;;38.00;36.30;;;;;;4986630;28;20645;-55
2021/06/17 11:00:48;;;;;;;6.27;5.80;;;37.80;36.00;;;;;;4981023;28;20469;-53
2021/06/17 11:03:38;;;;;;;5.60;5.10;;;38.00;36.20;;;;;;4976677;28;20456;-55
2021/06/17 11:06:08;;;;;;;5.63;4.93;;;37.70;37.50;;;;;;4977975;28;20238;-57
2021/06/17 11:08:35;;;;;;;6.37;5.30;;;37.60;36.50;;;;;;4980924;28;20758;-56
2021/06/17 11:11:04;;;;;;;5.07;4.77;;;37.70;36.30;;;;;;4980235;28;20480;-55
2021/06/17 11:13:33;;;;;;;5.20;4.90;;;38.00;35.30;;;;;;4980373;28;20496;-53
2021/06/17 11:16:06;;;;;;;4.83;4.47;;;37.90;35.80;;;;;;4985381;28;20971;-48
2021/06/17 11:18:57;;;;;;;4.57;4.17;;;38.10;35.30;;;;;;4984509;28;20493;-52
2021/06/17 11:21:49;;;;;;;4.73;4.33;;;38.20;34.90;;;;;;4983266;28;20440;-56
2021/06/17 11:24:33;;;;;;;5.30;4.90;;;38.10;35.80;;;;;;4980004;28;20458;-57
2021/06/17 11:27:02;;;;;;;4.50;4.15;;;38.10;35.40;;;;;;4961478;28;20225;-56
2021/06/17 11:29:59;;;;;;;5.17;4.83;;;38.30;36.10;;;;;;4974123;28;20245;-49
2021/06/17 11:32:35;;;;;;;8.23;5.77;;;38.20;35.10;;;;;;4971958;28;20674;-51
2021/06/17 11:35:04;;;;;;;5.00;4.67;;;38.50;36.10;;;;;;4979401;28;20927;-53
2021/06/17 11:37:35;;;;;;;5.18;4.88;;;38.40;35.60;;;;;;4978969;28;20260;-53
2021/06/17 11:40:03;;;;;;;6.20;5.80;;;38.10;35.70;;;;;;4978531;28;20210;-51
2021/06/17 11:42:32;;;;;;;5.50;5.10;;;37.60;36.80;;;;;;4977846;28;20465;-48
2021/06/17 11:45:00;;;;;;;6.03;5.43;;;37.80;35.50;;;;;;4977853;28;20229;-52
2021/06/17 11:47:28;;;;;;;5.67;5.20;;;37.70;35.70;;;;;;4978453;28;20885;-55
2021/06/17 11:50:05;;;;;;;5.87;5.50;;;37.90;36.70;;;;;;4979201;28;20469;-56
2021/06/17 11:52:45;;;;;;;5.63;5.13;;;37.60;35.20;;;;;;4978399;28;20468;-55
2021/06/17 11:55:14;;;;;;;6.00;5.60;;;37.10;36.40;;;;;;4980086;28;20463;-55
2021/06/17 11:57:41;;;;;;;6.33;5.73;;;37.50;35.70;;;;;;4979068;28;20869;-55
2021/06/17 12:00:11;;;;;;;6.33;5.87;;;37.70;36.40;;;;;;4979600;28;20461;-54
2021/06/17 12:02:43;;;;;;;7.30;5.33;;;37.50;36.30;;;;;;4976157;28;20465;-54
2021/06/17 12:05:13;;;;;;;5.80;5.50;;;37.80;36.70;;;;;;4974391;28;20902;-55
2021/06/17 12:07:45;;;;;;;5.90;5.50;;;37.80;36.30;;;;;;4976647;28;20469;-47
2021/06/17 12:10:18;;;;;;;6.13;5.70;;;37.60;35.40;;;;;;4978861;28;20465;-56
2021/06/17 12:12:50;;;;;;;5.53;4.73;;;37.10;35.10;;;;;;4962235;28;20473;-54
2021/06/17 12:15:18;;;;;;;8.30;6.60;;;37.10;35.80;;;;;;4977784;28;20489;-55
2021/06/17 12:17:47;;;;;;;5.70;5.40;;;37.20;35.80;;;;;;4979301;28;20882;-54
2021/06/17 12:20:19;;;;;;;5.70;5.10;;;37.10;35.60;;;;;;4976418;28;20472;-51
2021/06/17 12:22:48;;;;;;;7.40;5.67;;;37.20;35.50;;;;;;4980179;28;20849;-52
2021/06/17 12:25:19;;;;;;;4.77;4.47;;;37.30;34.90;;;;;;4974756;28;20941;-49
2021/06/17 12:27:48;;;;;;;5.93;5.20;;;37.70;34.60;;;;;;4980843;28;20461;-54
2021/06/17 12:30:31;;;;;;;5.43;5.13;;;38.10;34.20;;;;;;4978695;28;20886;-55
2021/06/17 12:33:07;;;;;;;6.07;5.57;;;37.60;34.90;;;;;;4975433;28;20459;-49
2021/06/17 12:35:47;;;;;;;5.80;5.30;;;37.80;35.60;;;;;;4974043;28;20929;-54
2021/06/17 12:38:26;;;;;;;5.40;5.10;;;38.10;35.00;;;;;;4970673;28;20945;-52
2021/06/17 12:40:54;;;;;;;5.30;4.80;;;37.50;34.30;;;;;;4979117;28;20469;-52
2021/06/17 12:43:23;;;;;;;4.97;4.57;;;37.40;34.80;;;;;;4978135;28;20466;-49
2021/06/17 12:46:01;;;;;;;5.30;5.00;;;37.90;33.20;;;;;;4979104;28;20465;-56
2021/06/17 12:54:08;;;;;;;7.17;5.47;;;37.80;34.60;;;;;;4964211;28;20444;-54
2021/06/17 12:56:36;;;;;;;6.20;5.17;;;37.70;35.40;;;;;;4973980;28;20517;-50
2021/06/17 12:59:03;;;;;;;6.30;5.40;;;37.90;35.30;;;;;;4975974;28;20465;-49
2021/06/17 13:01:47;;;;;;;7.17;6.67;;;37.70;36.00;;;;;;4977417;28;20469;-55
2021/06/17 13:04:16;;;;;;;6.23;5.63;;;37.70;35.40;;;;;;4964496;28;20476;-50
2021/06/17 13:06:47;;;;;;;15.00;5.70;;;37.50;36.00;;;;;;4977942;28;20520;-52
2021/06/17 13:09:22;;;;;;;7.10;6.43;;;37.30;36.70;;;;;;4978260;28;20446;-54
2021/06/17 13:12:05;;;;;;;7.00;6.50;;;37.10;36.80;;;;;;4975454;28;20476;-52
2021/06/17 13:14:34;;;;;;;6.83;6.33;;;36.90;37.20;;;;;;4977319;28;20526;-56
2021/06/17 13:17:05;;;;;;;7.00;6.40;;;37.10;36.90;;;;;;4978905;28;20471;-53
2021/06/17 13:19:35;;;;;;;6.13;5.63;;;37.40;36.90;;;;;;4971882;28;20532;-52
2021/06/17 13:22:08;;;;;;;6.90;6.40;;;38.00;36.50;;;;;;4977967;28;20540;-54
2021/06/17 13:24:41;;;;;;;6.50;6.00;;;38.10;36.20;;;;;;4978072;28;20474;-57
2021/06/17 13:27:12;;;;;;;7.37;6.87;;;38.00;36.50;;;;;;4978740;28;20532;-49
2021/06/17 13:29:50;;;;;;;7.47;6.87;;;37.70;35.70;;;;;;4967047;28;20560;-53
2021/06/17 13:32:18;;;;;;;6.53;6.13;;;37.40;36.10;;;;;;4977680;28;20504;-54
2021/06/17 13:34:45;;;;;;;7.27;6.70;;;37.50;36.60;;;;;;4989259;28;20497;-51
2021/06/17 13:37:15;;;;;;;8.70;8.00;;;37.70;37.40;;;;;;4970035;28;20786;-51
2021/06/17 13:39:45;;;;;;;8.43;7.90;;;37.50;37.80;;;;;;4977628;28;20791;-55
2021/06/17 13:42:15;;;;;;;8.43;7.83;;;37.60;38.10;;;;;;4977638;28;20497;-54
2021/06/17 13:44:42;;;;;;;8.57;7.80;;;37.30;37.90;;;;;;4978733;28;20555;-52
2021/06/17 13:47:15;;;;;;;8.47;7.97;;;37.20;38.80;;;;;;4972443;28;20465;-53
2021/06/17 13:49:43;;;;;;;10.43;7.50;;;37.70;38.60;;;;;;4976351;28;20473;-52